createdAt,value
2019-01-06T00:00:18.250Z,5.64
2019-01-06T00:01:18.274Z,5.64
2019-01-06T00:02:18.233Z,5.68
2019-01-06T00:03:18.252Z,5.63
2019-01-06T00:04:18.219Z,5.60
2019-01-06T00:05:18.185Z,5.66
2019-01-06T00:06:18.218Z,5.67
2019-01-06T00:07:18.259Z,5.63
2019-01-06T00:08:18.170Z,5.66
2019-01-06T00:09:18.147Z,5.67
2019-01-06T00:10:18.151Z,5.60
2019-01-06T00:11:18.125Z,5.60
2019-01-06T00:12:18.154Z,5.64
2019-01-06T00:13:18.122Z,5.73
2019-01-06T00:14:18.130Z,5.60
2019-01-06T00:15:18.110Z,5.70
2019-01-06T00:16:18.088Z,5.66
2019-01-06T00:17:18.095Z,5.59
2019-01-06T00:18:18.069Z,5.66
2019-01-06T00:19:18.058Z,5.60
2019-01-06T00:20:18.074Z,5.67
2019-01-06T00:21:18.035Z,5.67
2019-01-06T00:22:18.067Z,5.67
2019-01-06T00:23:18.061Z,5.71
2019-01-06T00:24:18.040Z,5.60
2019-01-06T00:25:17.987Z,5.67
2019-01-06T00:26:17.973Z,5.71
2019-01-06T00:27:17.979Z,5.67
2019-01-06T00:28:17.953Z,5.71
2019-01-06T00:29:17.944Z,5.57
2019-01-06T00:30:17.928Z,5.68
2019-01-06T00:31:17.920Z,5.66
2019-01-06T00:32:17.932Z,5.73
2019-01-06T00:33:17.892Z,5.64
2019-01-06T00:34:17.885Z,5.64
2019-01-06T00:35:17.880Z,5.68
2019-01-06T00:36:17.932Z,5.59
2019-01-06T00:37:18.149Z,5.67
2019-01-06T00:38:17.868Z,5.63
2019-01-06T00:39:17.833Z,5.67
2019-01-06T00:40:17.822Z,5.63
2019-01-06T00:41:19.228Z,5.63
2019-01-06T00:43:46.084Z,5.68
2019-01-06T00:44:45.763Z,5.59
2019-01-06T00:45:44.417Z,5.55
2019-01-06T00:46:44.413Z,5.64
2019-01-06T00:47:44.602Z,5.67
2019-01-06T00:48:44.424Z,5.63
2019-01-06T00:49:44.374Z,5.56
2019-01-06T00:50:44.379Z,5.64
2019-01-06T00:51:44.353Z,5.70
2019-01-06T00:52:44.351Z,5.63
2019-01-06T00:53:44.434Z,5.63
2019-01-06T00:54:44.329Z,5.60
2019-01-06T00:55:44.329Z,5.67
2019-01-06T00:56:44.735Z,5.67
2019-01-06T00:57:44.289Z,5.73
2019-01-06T00:58:44.286Z,5.68
2019-01-06T00:59:44.307Z,5.66
2019-01-06T01:00:44.286Z,5.68
2019-01-06T01:01:45.299Z,5.57
2019-01-06T01:02:44.259Z,5.66
2019-01-06T01:03:44.233Z,5.66
2019-01-06T01:04:44.256Z,5.67
2019-01-06T01:05:44.259Z,5.68
2019-01-06T01:06:44.236Z,5.66
2019-01-06T01:07:44.230Z,5.70
2019-01-06T01:08:44.179Z,5.66
2019-01-06T01:09:44.238Z,5.66
2019-01-06T01:10:44.168Z,5.67
2019-01-06T01:11:44.154Z,5.53
2019-01-06T01:12:44.166Z,5.55
2019-01-06T01:13:44.158Z,5.60
2019-01-06T01:14:44.149Z,5.57
2019-01-06T01:15:44.278Z,5.63
2019-01-06T01:16:44.090Z,5.64
2019-01-06T01:17:44.093Z,5.52
2019-01-06T01:18:44.114Z,5.59
2019-01-06T01:19:44.203Z,5.49
2019-01-06T01:20:44.096Z,5.53
2019-01-06T01:21:44.050Z,5.45
2019-01-06T01:22:44.096Z,5.41
2019-01-06T01:23:44.019Z,5.48
2019-01-06T01:24:44.014Z,5.48
2019-01-06T01:25:44.028Z,5.45
2019-01-06T01:26:48.286Z,5.48
2019-01-06T01:27:43.978Z,5.45
2019-01-06T01:28:43.977Z,5.45
2019-01-06T01:29:43.967Z,5.45
2019-01-06T01:30:44.578Z,5.48
2019-01-06T01:31:43.964Z,5.43
2019-01-06T01:32:43.938Z,5.41
2019-01-06T01:33:43.920Z,5.41
2019-01-06T01:34:43.978Z,5.48
2019-01-06T01:35:43.930Z,5.45
2019-01-06T01:36:43.887Z,5.45
2019-01-06T01:37:43.886Z,5.43
2019-01-06T01:38:43.872Z,5.45
2019-01-06T01:39:46.818Z,5.38
2019-01-06T01:40:43.909Z,5.37
2019-01-06T01:41:43.856Z,5.41
2019-01-06T01:42:43.825Z,5.40
2019-01-06T01:43:43.820Z,5.40
2019-01-06T01:44:43.820Z,5.35
2019-01-06T01:45:43.809Z,5.31
2019-01-06T01:46:43.804Z,5.35
2019-01-06T01:47:43.810Z,5.41
2019-01-06T01:48:43.769Z,5.28
2019-01-06T01:49:43.772Z,5.30
2019-01-06T01:50:43.735Z,5.38
2019-01-06T01:51:43.758Z,5.40
2019-01-06T01:52:43.738Z,5.35
2019-01-06T01:53:43.762Z,5.27
2019-01-06T01:54:43.732Z,5.35
2019-01-06T01:55:43.730Z,5.32
2019-01-06T01:56:43.705Z,5.45
2019-01-06T01:57:43.852Z,5.34
2019-01-06T01:58:43.680Z,5.35
2019-01-06T01:59:43.671Z,5.34
2019-01-06T02:00:43.652Z,5.35
2019-01-06T02:01:43.655Z,5.28
2019-01-06T02:02:43.625Z,5.25
2019-01-06T02:03:43.672Z,5.30
2019-01-06T02:04:43.627Z,5.32
2019-01-06T02:05:43.582Z,5.35
2019-01-06T02:06:43.571Z,5.30
2019-01-06T02:07:45.513Z,5.37
2019-01-06T02:08:45.569Z,5.31
2019-01-06T02:09:54.324Z,5.34
2019-01-06T02:10:44.912Z,5.37
2019-01-06T02:12:44.674Z,5.31
2019-01-06T02:13:43.499Z,5.35
2019-01-06T02:14:43.484Z,5.23
2019-01-06T02:15:43.483Z,5.30
2019-01-06T02:16:43.476Z,5.37
2019-01-06T02:17:43.487Z,5.38
2019-01-06T02:18:43.462Z,5.37
2019-01-06T02:19:43.433Z,5.34
2019-01-06T02:20:43.428Z,5.30
2019-01-06T02:21:43.418Z,5.32
2019-01-06T02:22:43.425Z,5.38
2019-01-06T02:23:43.749Z,5.40
2019-01-06T02:24:43.383Z,5.32
2019-01-06T02:25:43.372Z,5.30
2019-01-06T02:26:43.405Z,5.27
2019-01-06T02:27:43.394Z,5.35
2019-01-06T02:28:43.343Z,5.38
2019-01-06T02:29:43.333Z,5.30
2019-01-06T02:30:43.321Z,5.23
2019-01-06T02:31:43.337Z,5.23
2019-01-06T02:32:43.352Z,5.37
2019-01-06T02:33:43.293Z,5.31
2019-01-06T02:34:43.411Z,5.30
2019-01-06T02:35:43.323Z,5.37
2019-01-06T02:36:43.361Z,5.37
2019-01-06T02:37:43.300Z,5.34
2019-01-06T02:38:43.353Z,5.35
2019-01-06T02:39:43.229Z,5.34
2019-01-06T02:40:43.227Z,5.32
2019-01-06T02:41:43.210Z,5.32
2019-01-06T02:42:43.235Z,5.28
2019-01-06T02:43:43.207Z,5.28
2019-01-06T02:44:43.187Z,5.31
2019-01-06T02:45:43.163Z,5.30
2019-01-06T02:46:43.191Z,5.28
2019-01-06T02:47:43.148Z,5.35
2019-01-06T02:48:43.291Z,5.27
2019-01-06T02:49:43.120Z,5.28
2019-01-06T02:50:43.125Z,5.27
2019-01-06T02:51:43.115Z,5.31
2019-01-06T02:52:43.149Z,5.32
2019-01-06T02:53:43.116Z,5.31
2019-01-06T02:54:43.150Z,5.30
2019-01-06T02:55:43.213Z,5.27
2019-01-06T02:56:43.126Z,5.27
2019-01-06T02:57:43.035Z,5.28
2019-01-06T02:58:43.029Z,5.28
2019-01-06T02:59:43.042Z,5.27
2019-01-06T03:00:43.117Z,5.28
2019-01-06T03:01:42.998Z,5.25
2019-01-06T03:02:43.008Z,5.19
2019-01-06T03:03:42.972Z,5.23
2019-01-06T03:04:43.015Z,5.25
2019-01-06T03:05:42.955Z,5.27
2019-01-06T03:06:43.057Z,5.27
2019-01-06T03:07:44.992Z,5.20
2019-01-06T03:08:42.926Z,5.20
2019-01-06T03:09:42.931Z,5.23
2019-01-06T03:10:42.901Z,5.27
2019-01-06T03:11:42.893Z,5.27
2019-01-06T03:12:42.881Z,5.23
2019-01-06T03:13:43.500Z,5.27
2019-01-06T03:14:42.883Z,5.28
2019-01-06T03:15:42.861Z,5.30
2019-01-06T03:16:42.835Z,5.27
2019-01-06T03:17:42.851Z,5.25
2019-01-06T03:18:42.914Z,5.28
2019-01-06T03:19:42.829Z,5.27
2019-01-06T03:20:42.797Z,5.23
2019-01-06T03:21:42.799Z,5.30
2019-01-06T03:22:42.809Z,5.25
2019-01-06T03:23:42.767Z,5.23
2019-01-06T03:24:42.788Z,5.25
2019-01-06T03:25:42.743Z,5.27
2019-01-06T03:26:42.732Z,5.22
2019-01-06T03:27:42.725Z,5.31
2019-01-06T03:28:42.709Z,5.30
2019-01-06T03:29:42.737Z,5.20
2019-01-06T03:30:42.720Z,5.30
2019-01-06T03:31:42.685Z,5.27
2019-01-06T03:32:42.671Z,5.25
2019-01-06T03:33:42.663Z,5.30
2019-01-06T03:34:42.650Z,5.31
2019-01-06T03:35:42.660Z,5.28
2019-01-06T03:36:42.629Z,5.30
2019-01-06T03:37:42.618Z,5.30
2019-01-06T03:38:42.610Z,5.27
2019-01-06T03:39:42.606Z,5.25
2019-01-06T03:40:42.613Z,5.30
2019-01-06T03:41:42.577Z,5.30
2019-01-06T03:42:42.568Z,5.27
2019-01-06T03:43:42.558Z,5.32
2019-01-06T03:44:42.561Z,5.30
2019-01-06T03:45:42.556Z,5.34
2019-01-06T03:46:42.633Z,5.32
2019-01-06T03:47:42.513Z,5.40
2019-01-06T03:48:42.508Z,5.31
2019-01-06T03:49:42.520Z,5.30
2019-01-06T03:50:42.481Z,5.31
2019-01-06T03:51:42.511Z,5.35
2019-01-06T03:52:42.461Z,5.32
2019-01-06T03:53:42.474Z,5.35
2019-01-06T03:54:42.440Z,5.31
2019-01-06T03:55:42.433Z,5.34
2019-01-06T03:56:42.444Z,5.31
2019-01-06T03:57:42.410Z,5.27
2019-01-06T03:58:42.410Z,5.35
2019-01-06T03:59:42.393Z,5.34
2019-01-06T04:00:42.386Z,5.25
2019-01-06T04:01:42.390Z,5.23
2019-01-06T04:02:42.374Z,5.34
2019-01-06T04:03:42.350Z,5.30
2019-01-06T04:04:42.339Z,5.27
2019-01-06T04:05:42.329Z,5.34
2019-01-06T04:06:42.319Z,5.32
2019-01-06T04:07:42.336Z,5.35
2019-01-06T04:08:42.296Z,5.32
2019-01-06T04:09:42.286Z,5.35
2019-01-06T04:10:42.273Z,5.32
2019-01-06T04:11:42.274Z,5.31
2019-01-06T04:12:42.283Z,5.35
2019-01-06T04:13:42.246Z,5.35
2019-01-06T04:14:42.233Z,5.34
2019-01-06T04:15:42.223Z,5.32
2019-01-06T04:16:42.228Z,5.31
2019-01-06T04:17:42.204Z,5.34
2019-01-06T04:18:42.218Z,5.34
2019-01-06T04:19:42.180Z,5.34
2019-01-06T04:20:42.181Z,5.37
2019-01-06T04:21:42.161Z,5.32
2019-01-06T04:22:42.149Z,5.30
2019-01-06T04:23:42.157Z,5.37
2019-01-06T04:24:42.128Z,5.35
2019-01-06T04:25:42.129Z,5.30
2019-01-06T04:26:42.107Z,5.37
2019-01-06T04:27:42.100Z,5.27
2019-01-06T04:28:42.110Z,5.37
2019-01-06T04:29:42.094Z,5.35
2019-01-06T04:30:42.065Z,5.23
2019-01-06T04:31:42.054Z,5.31
2019-01-06T04:32:42.046Z,5.30
2019-01-06T04:33:42.122Z,5.37
2019-01-06T04:34:42.054Z,5.25
2019-01-06T04:35:42.012Z,5.34
2019-01-06T04:36:42.007Z,5.37
2019-01-06T04:37:41.995Z,5.32
2019-01-06T04:38:42.006Z,5.38
2019-01-06T04:39:41.994Z,5.34
2019-01-06T04:40:41.962Z,5.35
2019-01-06T04:41:41.991Z,5.31
2019-01-06T04:42:41.941Z,5.31
2019-01-06T04:43:41.928Z,5.38
2019-01-06T04:44:41.937Z,5.30
2019-01-06T04:45:41.941Z,5.27
2019-01-06T04:46:41.899Z,5.34
2019-01-06T04:47:41.887Z,5.35
2019-01-06T04:48:41.896Z,5.25
2019-01-06T04:49:41.896Z,5.34
2019-01-06T04:50:41.862Z,5.32
2019-01-06T04:51:41.848Z,5.35
2019-01-06T04:52:41.838Z,5.30
2019-01-06T04:53:41.830Z,5.30
2019-01-06T04:54:41.820Z,5.38
2019-01-06T04:55:41.830Z,5.37
2019-01-06T04:56:41.798Z,5.27
2019-01-06T04:57:41.796Z,5.32
2019-01-06T04:58:41.777Z,5.31
2019-01-06T04:59:41.770Z,5.28
2019-01-06T05:00:41.782Z,5.35
2019-01-06T05:01:41.750Z,5.35
2019-01-06T05:02:41.735Z,5.30
2019-01-06T05:03:41.740Z,5.34
2019-01-06T05:04:41.715Z,5.35
2019-01-06T05:05:41.744Z,5.32
2019-01-06T05:06:41.704Z,5.32
2019-01-06T05:07:41.678Z,5.28
2019-01-06T05:08:41.672Z,5.34
2019-01-06T05:09:41.660Z,5.27
2019-01-06T05:10:41.653Z,5.31
2019-01-06T05:11:41.655Z,5.35
2019-01-06T05:12:41.634Z,5.32
2019-01-06T05:13:41.619Z,5.32
2019-01-06T05:14:41.606Z,5.30
2019-01-06T05:15:41.613Z,5.32
2019-01-06T05:16:41.621Z,5.30
2019-01-06T05:17:41.579Z,5.32
2019-01-06T05:18:41.576Z,5.31
2019-01-06T05:19:41.558Z,5.27
2019-01-06T05:20:41.579Z,5.27
2019-01-06T05:21:41.567Z,5.32
2019-01-06T05:22:41.529Z,5.32
2019-01-06T05:23:41.517Z,5.30
2019-01-06T05:24:41.506Z,5.31
2019-01-06T05:25:41.516Z,5.28
2019-01-06T05:26:41.519Z,5.30
2019-01-06T05:27:41.478Z,5.30
2019-01-06T05:28:41.467Z,5.30
2019-01-06T05:29:41.501Z,5.35
2019-01-06T05:30:41.445Z,5.30
2019-01-06T05:31:41.435Z,5.37
2019-01-06T05:32:41.456Z,5.30
2019-01-06T05:33:41.414Z,5.30
2019-01-06T05:34:41.403Z,5.27
2019-01-06T05:35:41.392Z,5.34
2019-01-06T05:36:41.387Z,5.32
2019-01-06T05:37:41.401Z,5.30
2019-01-06T05:38:41.377Z,5.32
2019-01-06T05:39:41.357Z,5.27
2019-01-06T05:40:41.351Z,5.34
2019-01-06T05:41:41.398Z,5.30
2019-01-06T05:42:41.343Z,5.35
2019-01-06T05:43:41.316Z,5.34
2019-01-06T05:44:41.359Z,5.31
2019-01-06T05:45:41.302Z,5.32
2019-01-06T05:46:41.279Z,5.32
2019-01-06T05:47:41.290Z,5.31
2019-01-06T05:48:41.260Z,5.27
2019-01-06T05:49:41.334Z,5.35
2019-01-06T05:50:41.250Z,5.32
2019-01-06T05:51:41.227Z,5.32
2019-01-06T05:52:41.234Z,5.30
2019-01-06T05:53:41.220Z,5.30
2019-01-06T05:54:41.196Z,5.32
2019-01-06T05:55:41.189Z,5.27
2019-01-06T05:56:41.181Z,5.30
2019-01-06T05:57:41.172Z,5.31
2019-01-06T05:58:41.178Z,5.28
2019-01-06T05:59:41.150Z,5.32
2019-01-06T06:00:41.131Z,5.27
2019-01-06T06:01:41.119Z,5.27
2019-01-06T06:02:41.112Z,5.30
2019-01-06T06:03:41.145Z,5.37
2019-01-06T06:04:41.092Z,5.28
2019-01-06T06:05:41.084Z,5.25
2019-01-06T06:06:41.076Z,5.30
2019-01-06T06:07:41.060Z,5.27
2019-01-06T06:08:41.072Z,5.28
2019-01-06T06:09:41.037Z,5.32
2019-01-06T06:10:41.029Z,5.28
2019-01-06T06:11:41.023Z,5.28
2019-01-06T06:12:41.010Z,5.32
2019-01-06T06:13:41.018Z,5.28
2019-01-06T06:14:41.043Z,5.27
2019-01-06T06:15:40.986Z,5.25
2019-01-06T06:16:40.962Z,5.28
2019-01-06T06:17:40.959Z,5.28
2019-01-06T06:18:40.974Z,5.32
2019-01-06T06:19:40.933Z,5.25
2019-01-06T06:20:40.933Z,5.31
2019-01-06T06:21:40.933Z,5.31
2019-01-06T06:22:40.908Z,5.25
2019-01-06T06:23:40.889Z,5.31
2019-01-06T06:24:40.908Z,5.25
2019-01-06T06:25:40.879Z,5.23
2019-01-06T06:26:40.879Z,5.20
2019-01-06T06:27:40.855Z,5.19
2019-01-06T06:28:40.842Z,5.22
2019-01-06T06:29:40.851Z,5.12
2019-01-06T06:30:40.820Z,5.19
2019-01-06T06:31:40.838Z,5.22
2019-01-06T06:32:40.800Z,5.22
2019-01-06T06:33:40.789Z,5.14
2019-01-06T06:34:40.799Z,5.16
2019-01-06T06:35:40.781Z,5.20
2019-01-06T06:36:40.755Z,5.20
2019-01-06T06:37:40.747Z,5.16
2019-01-06T06:38:40.739Z,5.17
2019-01-06T06:39:40.771Z,5.20
2019-01-06T06:40:40.714Z,5.16
2019-01-06T06:41:40.735Z,5.17
2019-01-06T06:42:40.703Z,5.19
2019-01-06T06:43:40.685Z,5.23
2019-01-06T06:44:40.678Z,5.09
2019-01-06T06:45:40.692Z,5.23
2019-01-06T06:46:40.653Z,5.17
2019-01-06T06:47:40.744Z,5.09
2019-01-06T06:48:40.648Z,5.14
2019-01-06T06:49:40.625Z,5.25
2019-01-06T06:50:40.640Z,5.17
2019-01-06T06:51:40.608Z,5.12
2019-01-06T06:52:40.591Z,5.19
2019-01-06T06:53:40.587Z,5.22
2019-01-06T06:54:40.573Z,5.20
2019-01-06T06:55:40.742Z,5.14
2019-01-06T06:56:40.724Z,5.22
2019-01-06T06:57:40.632Z,5.23
2019-01-06T06:58:40.588Z,5.20
2019-01-06T06:59:40.618Z,5.04
2019-01-06T07:00:40.565Z,5.13
2019-01-06T07:01:42.064Z,5.09
2019-01-06T07:02:40.539Z,5.17
2019-01-06T07:03:40.639Z,5.07
2019-01-06T07:04:40.555Z,5.13
2019-01-06T07:05:40.550Z,5.12
2019-01-06T07:06:40.538Z,5.09
2019-01-06T07:07:40.684Z,5.10
2019-01-06T07:08:40.556Z,5.13
2019-01-06T07:09:40.469Z,5.10
2019-01-06T07:10:40.546Z,5.14
2019-01-06T07:11:40.472Z,5.10
2019-01-06T07:12:40.462Z,5.04
2019-01-06T07:13:41.166Z,5.19
2019-01-06T07:14:40.571Z,5.04
2019-01-06T07:15:40.555Z,5.14
2019-01-06T07:16:40.596Z,5.14
2019-01-06T07:17:40.401Z,5.12
2019-01-06T07:18:40.390Z,5.14
2019-01-06T07:19:40.428Z,5.16
2019-01-06T07:20:40.339Z,5.16
2019-01-06T07:21:40.537Z,5.16
2019-01-06T07:22:40.521Z,5.05
2019-01-06T07:23:40.338Z,5.04
2019-01-06T07:24:40.473Z,5.13
2019-01-06T07:25:40.276Z,5.07
2019-01-06T07:26:40.434Z,5.10
2019-01-06T07:27:40.344Z,5.12
2019-01-06T07:28:40.292Z,5.09
2019-01-06T07:29:40.339Z,4.99
2019-01-06T07:30:40.238Z,5.04
2019-01-06T07:31:40.240Z,5.10
2019-01-06T07:32:40.249Z,5.10
2019-01-06T07:33:40.284Z,5.05
2019-01-06T07:34:40.257Z,5.05
2019-01-06T07:35:40.248Z,5.09
2019-01-06T07:36:40.321Z,5.14
2019-01-06T07:37:40.218Z,5.10
2019-01-06T07:38:40.362Z,5.09
2019-01-06T07:39:40.278Z,5.01
2019-01-06T07:40:40.316Z,5.14
2019-01-06T07:41:40.159Z,5.17
2019-01-06T07:42:40.205Z,5.04
2019-01-06T07:43:40.259Z,5.14
2019-01-06T07:44:40.160Z,5.12
2019-01-06T07:45:40.188Z,5.10
2019-01-06T07:46:40.107Z,5.05
2019-01-06T07:47:40.358Z,5.12
2019-01-06T07:48:40.115Z,5.13
2019-01-06T07:49:40.096Z,5.14
2019-01-06T07:50:40.086Z,5.10
2019-01-06T07:51:40.038Z,4.95
2019-01-06T07:52:40.167Z,5.07
2019-01-06T07:53:40.124Z,5.01
2019-01-06T07:54:40.071Z,5.04
2019-01-06T07:55:40.038Z,5.01
2019-01-06T07:56:40.117Z,4.99
2019-01-06T07:57:39.929Z,5.02
2019-01-06T07:58:40.038Z,4.95
2019-01-06T07:59:40.049Z,5.01
2019-01-06T08:00:40.081Z,5.12
2019-01-06T08:01:40.017Z,5.10
2019-01-06T08:02:39.970Z,5.12
2019-01-06T08:03:40.397Z,5.10
2019-01-06T08:04:39.921Z,5.05
2019-01-06T08:05:40.115Z,5.14
2019-01-06T08:06:40.029Z,5.02
2019-01-06T08:07:40.086Z,5.10
2019-01-06T08:08:39.945Z,5.12
2019-01-06T08:09:39.834Z,5.07
2019-01-06T08:10:40.001Z,5.04
2019-01-06T08:11:39.999Z,5.05
2019-01-06T08:12:39.971Z,5.02
2019-01-06T08:13:40.114Z,5.05
2019-01-06T08:14:40.090Z,5.10
2019-01-06T08:15:39.892Z,5.02
2019-01-06T08:16:40.247Z,5.10
2019-01-06T08:17:39.873Z,5.12
2019-01-06T08:18:39.806Z,4.96
2019-01-06T08:19:39.873Z,5.10
2019-01-06T08:20:39.935Z,5.04
2019-01-06T08:21:39.903Z,5.04
2019-01-06T08:22:39.743Z,5.05
2019-01-06T08:23:39.797Z,5.12
2019-01-06T08:24:39.901Z,5.07
2019-01-06T08:25:39.748Z,5.01
2019-01-06T08:26:39.802Z,5.10
2019-01-06T08:27:39.827Z,5.12
2019-01-06T08:28:41.352Z,4.99
2019-01-06T08:29:39.806Z,4.99
2019-01-06T08:30:40.275Z,5.13
2019-01-06T08:31:39.770Z,5.13
2019-01-06T08:32:39.742Z,5.07
2019-01-06T08:33:39.630Z,5.13
2019-01-06T08:34:39.760Z,5.05
2019-01-06T08:35:39.717Z,4.98
2019-01-06T08:36:39.511Z,5.16
2019-01-06T08:37:39.504Z,5.12
2019-01-06T08:38:39.487Z,5.12
2019-01-06T08:39:39.485Z,4.99
2019-01-06T08:40:39.514Z,5.14
2019-01-06T08:41:39.461Z,5.16
2019-01-06T08:42:39.448Z,5.07
2019-01-06T08:43:39.435Z,5.13
2019-01-06T08:44:39.484Z,5.16
2019-01-06T08:45:39.561Z,5.10
2019-01-06T08:46:39.439Z,5.13
2019-01-06T08:47:39.469Z,5.13
2019-01-06T08:48:39.391Z,5.14
2019-01-06T08:49:39.383Z,5.20
2019-01-06T08:50:39.375Z,5.13
2019-01-06T08:51:39.428Z,5.22
2019-01-06T08:52:39.416Z,5.16
2019-01-06T08:53:39.463Z,5.10
2019-01-06T08:54:39.347Z,5.09
2019-01-06T08:55:39.342Z,5.20
2019-01-06T08:56:39.393Z,5.14
2019-01-06T08:57:39.328Z,5.09
2019-01-06T08:58:39.305Z,5.13
2019-01-06T08:59:39.301Z,5.16
2019-01-06T09:00:39.303Z,5.13
2019-01-06T09:01:39.328Z,5.13
2019-01-06T09:02:39.265Z,5.13
2019-01-06T09:03:39.278Z,5.10
2019-01-06T09:04:39.254Z,5.20
2019-01-06T09:05:39.337Z,5.25
2019-01-06T09:06:39.224Z,5.13
2019-01-06T09:07:39.309Z,5.13
2019-01-06T09:08:39.204Z,5.09
2019-01-06T09:09:45.515Z,5.13
2019-01-06T09:10:40.228Z,5.27
2019-01-06T09:11:39.270Z,5.20
2019-01-06T09:12:42.938Z,5.17
2019-01-06T09:13:40.381Z,5.19
2019-01-06T09:14:39.351Z,5.20
2019-01-06T09:15:39.338Z,5.25
2019-01-06T09:16:39.242Z,5.23
2019-01-06T09:17:39.329Z,5.23
2019-01-06T09:18:39.089Z,5.23
2019-01-06T09:19:39.066Z,5.19
2019-01-06T09:20:39.053Z,5.20
2019-01-06T09:21:39.048Z,5.27
2019-01-06T09:22:39.031Z,5.19
2019-01-06T09:23:39.041Z,5.10
2019-01-06T09:24:39.016Z,5.23
2019-01-06T09:25:41.169Z,5.22
2019-01-06T09:26:39.005Z,5.16
2019-01-06T09:27:38.985Z,5.16
2019-01-06T09:28:39.008Z,5.22
2019-01-06T09:29:38.957Z,5.19
2019-01-06T09:30:38.972Z,5.25
2019-01-06T09:31:38.935Z,5.23
2019-01-06T09:32:38.934Z,5.17
2019-01-06T09:33:38.909Z,5.16
2019-01-06T09:34:38.940Z,5.17
2019-01-06T09:35:38.901Z,5.19
2019-01-06T09:36:38.886Z,5.19
2019-01-06T09:37:38.879Z,5.16
2019-01-06T09:38:38.866Z,5.19
2019-01-06T09:39:38.876Z,5.22
2019-01-06T09:40:38.918Z,5.22
2019-01-06T09:41:38.832Z,5.20
2019-01-06T09:42:38.830Z,5.28
2019-01-06T09:43:38.854Z,5.22
2019-01-06T09:44:38.821Z,5.27
2019-01-06T09:45:38.789Z,5.27
2019-01-06T09:46:38.797Z,5.32
2019-01-06T09:47:38.777Z,5.35
2019-01-06T09:48:38.758Z,5.31
2019-01-06T09:49:38.777Z,5.31
2019-01-06T09:50:38.735Z,5.30
2019-01-06T09:51:38.746Z,5.37
2019-01-06T09:52:38.722Z,5.27
2019-01-06T09:53:38.712Z,5.41
2019-01-06T09:54:38.711Z,5.25
2019-01-06T09:55:38.721Z,5.27
2019-01-06T09:56:38.675Z,5.25
2019-01-06T09:57:38.662Z,5.38
2019-01-06T09:58:38.655Z,5.38
2019-01-06T09:59:38.755Z,5.35
2019-01-06T10:00:38.759Z,5.41
2019-01-06T10:01:38.640Z,5.34
2019-01-06T10:02:38.670Z,5.37
2019-01-06T10:03:38.607Z,5.38
2019-01-06T10:04:38.602Z,5.40
2019-01-06T10:05:38.638Z,5.38
2019-01-06T10:06:38.660Z,5.38
2019-01-06T10:07:38.562Z,5.30
2019-01-06T10:08:38.660Z,5.40
2019-01-06T10:09:38.544Z,5.38
2019-01-06T10:10:38.580Z,5.40
2019-01-06T10:11:38.540Z,5.45
2019-01-06T10:12:38.517Z,5.35
2019-01-06T10:13:38.532Z,5.41
2019-01-06T10:14:38.491Z,5.41
2019-01-06T10:15:38.496Z,5.43
2019-01-06T10:16:38.487Z,5.41
2019-01-06T10:17:38.473Z,5.37
2019-01-06T10:18:38.463Z,5.40
2019-01-06T10:19:38.549Z,5.43
2019-01-06T10:20:38.727Z,5.43
2019-01-06T10:21:39.050Z,5.40
2019-01-06T10:22:38.421Z,5.40
2019-01-06T10:23:38.415Z,5.45
2019-01-06T10:24:38.496Z,5.37
2019-01-06T10:25:38.438Z,5.46
2019-01-06T10:26:38.427Z,5.43
2019-01-06T10:27:38.382Z,5.46
2019-01-06T10:28:38.352Z,5.46
2019-01-06T10:29:38.351Z,5.43
2019-01-06T10:30:39.320Z,5.49
2019-01-06T10:31:38.349Z,5.50
2019-01-06T10:32:38.346Z,5.48
2019-01-06T10:33:38.290Z,5.48
2019-01-06T10:34:38.294Z,5.49
2019-01-06T10:35:38.286Z,5.50
2019-01-06T10:36:38.299Z,5.45
2019-01-06T10:37:38.250Z,5.48
2019-01-06T10:38:38.279Z,5.48
2019-01-06T10:39:38.231Z,5.46
2019-01-06T10:40:38.240Z,5.48
2019-01-06T10:41:38.231Z,5.50
2019-01-06T10:42:38.235Z,5.55
2019-01-06T10:43:38.194Z,5.55
2019-01-06T10:44:38.188Z,5.52
2019-01-06T10:45:38.195Z,5.55
2019-01-06T10:46:38.166Z,5.53
2019-01-06T10:47:38.159Z,5.59
2019-01-06T10:48:38.207Z,5.55
2019-01-06T10:49:38.127Z,5.56
2019-01-06T10:50:38.120Z,5.63
2019-01-06T10:51:38.143Z,5.63
2019-01-06T10:52:38.095Z,5.56
2019-01-06T10:53:38.077Z,5.59
2019-01-06T10:54:38.099Z,5.67
2019-01-06T10:55:38.064Z,5.66
2019-01-06T10:56:38.075Z,5.56
2019-01-06T10:57:38.064Z,5.66
2019-01-06T10:58:38.031Z,5.57
2019-01-06T10:59:38.044Z,5.66
2019-01-06T11:00:38.009Z,5.68
2019-01-06T11:01:37.994Z,5.67
2019-01-06T11:02:38.043Z,5.60
2019-01-06T11:03:37.993Z,5.64
2019-01-06T11:04:37.992Z,5.63
2019-01-06T11:05:37.978Z,5.63
2019-01-06T11:06:37.944Z,5.56
2019-01-06T11:07:37.940Z,5.66
2019-01-06T11:08:37.936Z,5.71
2019-01-06T11:09:37.919Z,5.63
2019-01-06T11:10:37.933Z,5.74
2019-01-06T11:11:37.898Z,5.73
2019-01-06T11:12:37.893Z,5.82
2019-01-06T11:13:37.878Z,5.73
2019-01-06T11:14:37.922Z,5.82
2019-01-06T11:15:38.063Z,5.83
2019-01-06T11:16:37.845Z,5.85
2019-01-06T11:17:37.875Z,5.78
2019-01-06T11:18:39.076Z,5.91
2019-01-06T11:19:38.177Z,5.93
2019-01-06T11:20:37.930Z,5.85
2019-01-06T11:21:37.840Z,5.85
2019-01-06T11:22:37.859Z,5.95
2019-01-06T11:23:37.822Z,5.91
2019-01-06T11:24:37.754Z,5.86
2019-01-06T11:25:37.760Z,5.91
2019-01-06T11:26:37.949Z,5.89
2019-01-06T11:27:37.718Z,5.96
2019-01-06T11:28:37.711Z,5.88
2019-01-06T11:29:37.707Z,5.93
2019-01-06T11:30:37.698Z,5.91
2019-01-06T11:31:39.174Z,5.88
2019-01-06T11:32:37.672Z,5.89
2019-01-06T11:33:37.818Z,6.00
2019-01-06T11:34:38.548Z,5.89
2019-01-06T11:35:37.829Z,5.91
2019-01-06T11:36:37.658Z,5.95
2019-01-06T11:37:37.684Z,5.96
2019-01-06T11:38:37.691Z,5.91
2019-01-06T11:39:37.668Z,6.00
2019-01-06T11:40:37.637Z,5.93
2019-01-06T11:41:37.714Z,5.98
2019-01-06T11:42:37.595Z,5.93
2019-01-06T11:43:37.554Z,5.91
2019-01-06T11:44:37.549Z,5.95
2019-01-06T11:45:37.543Z,5.96
2019-01-06T11:46:37.535Z,5.92
2019-01-06T11:47:37.590Z,5.89
2019-01-06T11:48:37.754Z,5.92
2019-01-06T11:49:40.622Z,5.93
2019-01-06T11:50:37.492Z,5.93
2019-01-06T11:51:37.478Z,6.01
2019-01-06T11:52:37.485Z,6.00
2019-01-06T11:53:37.450Z,6.00
2019-01-06T11:54:37.441Z,5.96
2019-01-06T11:55:37.432Z,5.96
2019-01-06T11:56:37.451Z,5.95
2019-01-06T11:57:37.441Z,6.01
2019-01-06T11:58:37.424Z,5.95
2019-01-06T11:59:37.394Z,5.96
2019-01-06T12:00:37.395Z,5.86
2019-01-06T12:01:37.391Z,5.95
2019-01-06T12:02:39.171Z,5.98
2019-01-06T12:03:37.398Z,5.92
2019-01-06T12:04:37.925Z,5.98
2019-01-06T12:05:37.326Z,5.92
2019-01-06T12:06:37.340Z,5.92
2019-01-06T12:07:37.329Z,6.04
2019-01-06T12:08:41.072Z,5.93
2019-01-06T12:09:37.297Z,6.03
2019-01-06T12:10:37.286Z,6.11
2019-01-06T12:11:37.269Z,6.10
2019-01-06T12:12:37.265Z,6.00
2019-01-06T12:13:37.282Z,6.07
2019-01-06T12:14:37.234Z,6.04
2019-01-06T12:15:37.673Z,6.10
2019-01-06T12:16:37.250Z,6.10
2019-01-06T12:17:37.224Z,6.14
2019-01-06T12:18:37.235Z,6.10
2019-01-06T12:19:43.953Z,6.07
2019-01-06T12:20:37.185Z,6.11
2019-01-06T12:21:37.161Z,6.11
2019-01-06T12:22:37.160Z,6.06
2019-01-06T12:23:37.162Z,6.09
2019-01-06T12:24:37.148Z,6.07
2019-01-06T12:25:37.120Z,6.19
2019-01-06T12:26:37.129Z,6.06
2019-01-06T12:27:37.100Z,6.04
2019-01-06T12:28:37.117Z,6.13
2019-01-06T12:29:37.104Z,6.11
2019-01-06T12:30:37.099Z,6.16
2019-01-06T12:31:37.057Z,6.09
2019-01-06T12:32:37.063Z,6.09
2019-01-06T12:33:39.080Z,6.04
2019-01-06T12:34:37.035Z,6.10
2019-01-06T12:35:37.023Z,6.00
2019-01-06T12:36:37.012Z,6.04
2019-01-06T12:37:37.012Z,6.09
2019-01-06T12:38:36.985Z,6.10
2019-01-06T12:39:37.022Z,6.07
2019-01-06T12:40:36.964Z,6.11
2019-01-06T12:41:36.956Z,6.10
2019-01-06T12:42:36.934Z,6.13
2019-01-06T12:43:36.942Z,6.19
2019-01-06T12:44:44.484Z,6.13
2019-01-06T12:45:37.931Z,6.13
2019-01-06T12:46:36.916Z,6.14
2019-01-06T12:47:36.891Z,6.14
2019-01-06T12:48:36.911Z,6.18
2019-01-06T12:49:36.918Z,6.18
2019-01-06T12:50:36.862Z,6.21
2019-01-06T12:51:43.467Z,6.19
2019-01-06T12:52:37.856Z,6.18
2019-01-06T12:53:40.131Z,6.22
2019-01-06T12:54:36.846Z,6.13
2019-01-06T12:55:36.833Z,6.14
2019-01-06T12:56:36.794Z,6.19
2019-01-06T12:57:44.188Z,6.14
2019-01-06T12:58:37.790Z,6.28
2019-01-06T12:59:36.767Z,6.21
2019-01-06T13:00:36.797Z,6.21
2019-01-06T13:01:36.741Z,6.33
2019-01-06T13:02:36.749Z,6.26
2019-01-06T13:03:36.750Z,6.36
2019-01-06T13:04:36.710Z,6.22
2019-01-06T13:05:36.766Z,6.32
2019-01-06T13:06:36.742Z,6.30
2019-01-06T13:07:36.685Z,6.30
2019-01-06T13:08:36.703Z,6.28
2019-01-06T13:09:36.667Z,6.25
2019-01-06T13:10:36.663Z,6.38
2019-01-06T13:11:36.676Z,6.33
2019-01-06T13:12:36.622Z,6.41
2019-01-06T13:13:37.293Z,6.35
2019-01-06T13:14:36.615Z,6.29
2019-01-06T13:15:36.591Z,6.29
2019-01-06T13:16:36.585Z,6.26
2019-01-06T13:17:36.610Z,6.40
2019-01-06T13:18:36.582Z,6.22
2019-01-06T13:19:36.555Z,6.29
2019-01-06T13:20:36.558Z,6.35